Accueil
METAR-TAF:

METAR-TAF

Aéroports :

Pruniers

Romorantin, France

latitude: 47-19N, longitude: 001-41E, altitude: 85 m

Observation

Le bulletin a été fait il y a 12 minutes, à 10:00 UTC
Vent 4 kt de nord/nord-est, variant entre ouest/nord-ouest et est/nord-est
Température 12°C
Humidité 82%
Pression 1029 hPa
Visibilité: 3300 m
Ciel couvert à une hauteur de 500 ft
brume

METAR: LFYR 201000Z AUTO 02004KT 300V070 3300 BR OVC005 12/09 Q1029

Heure: 12:12 (10:12 UTC)


TAF: absent

Observations et prévisions météorologiques de plus de 4000 aéroports (messages METAR et TAF).

Les stations disponibles sont représentées par des disques jaunes et rouges sur la carte.

Passer la souris dessus pour voir le nom de la station.

Cliquer dessus pour voir les observations et prévisions météorologiques.

Pour changer de carte: cliquez sur les boutons verts avec une croix noire pour zoomer, sur le bouton vert avec un tiret pour effectuer un zoom arrière, ou sur les flèches vertes pour les cartes adjacentes.


METAR-TAF: